sensor_id;sensor_type;location;lat;lon;timestamp;pressure;altitude;pressure_sealevel;temperature;humidity
11643;BME280;5877;50.930;6.918;2023-02-26T00:03:52;101035.06;;;-0.67;66.51
11643;BME280;5877;50.930;6.918;2023-02-26T00:08:46;101052.41;;;-0.39;66.60
11643;BME280;5877;50.930;6.918;2023-02-26T00:13:41;101060.69;;;-0.05;65.31
11643;BME280;5877;50.930;6.918;2023-02-26T00:18:33;100882.88;;;-1.36;65.07
11643;BME280;5877;50.930;6.918;2023-02-26T00:23:25;101048.19;;;0.10;64.76
11643;BME280;5877;50.930;6.918;2023-02-26T00:28:17;100954.44;;;-0.39;64.53
11643;BME280;5877;50.930;6.918;2023-02-26T00:33:09;101047.38;;;0.19;63.98
11643;BME280;5877;50.930;6.918;2023-02-26T00:38:04;101101.38;;;0.61;63.20
11643;BME280;5877;50.930;6.918;2023-02-26T00:42:57;100867.75;;;-0.89;63.42
11643;BME280;5877;50.930;6.918;2023-02-26T00:53:28;101014.22;;;-0.14;63.91
11643;BME280;5877;50.930;6.918;2023-02-26T00:58:22;100717.34;;;-1.98;63.28
11643;BME280;5877;50.930;6.918;2023-02-26T01:03:14;101016.25;;;-0.08;64.21
11643;BME280;5877;50.930;6.918;2023-02-26T01:08:33;101026.69;;;-0.19;64.50
11643;BME280;5877;50.930;6.918;2023-02-26T01:13:26;101135.00;;;0.21;64.93
11643;BME280;5877;50.930;6.918;2023-02-26T01:18:29;101088.56;;;-0.29;65.46
11643;BME280;5877;50.930;6.918;2023-02-26T01:23:25;101096.38;;;-0.40;66.95
11643;BME280;5877;50.930;6.918;2023-02-26T01:28:19;101145.78;;;-0.14;66.98
11643;BME280;5877;50.930;6.918;2023-02-26T01:33:28;101152.69;;;-0.15;67.39
11643;BME280;5877;50.930;6.918;2023-02-26T01:43:38;101130.22;;;-0.54;67.96
11643;BME280;5877;50.930;6.918;2023-02-26T01:48:47;101151.78;;;-0.35;67.75
11643;BME280;5877;50.930;6.918;2023-02-26T01:53:39;101066.56;;;-0.84;67.79
11643;BME280;5877;50.930;6.918;2023-02-26T01:58:34;100907.31;;;-1.72;68.61
11643;BME280;5877;50.930;6.918;2023-02-26T02:03:29;101075.41;;;-0.56;68.26
11643;BME280;5877;50.930;6.918;2023-02-26T02:08:22;101146.59;;;-0.14;68.00
11643;BME280;5877;50.930;6.918;2023-02-26T02:13:27;101147.03;;;-0.09;67.55
11643;BME280;5877;50.930;6.918;2023-02-26T02:29:20;101154.97;;;-0.21;67.68
11643;BME280;5877;50.930;6.918;2023-02-26T02:34:41;101164.38;;;-0.41;68.90
11643;BME280;5877;50.930;6.918;2023-02-26T02:39:41;101178.97;;;-0.51;68.64
11643;BME280;5877;50.930;6.918;2023-02-26T02:44:38;101173.38;;;-0.56;69.13
11643;BME280;5877;50.930;6.918;2023-02-26T02:49:46;101035.88;;;-1.50;69.37
11643;BME280;5877;50.930;6.918;2023-02-26T02:54:48;101197.19;;;-0.64;69.51
11643;BME280;5877;50.930;6.918;2023-02-26T02:59:44;101202.22;;;-0.62;69.26
11643;BME280;5877;50.930;6.918;2023-02-26T03:04:37;101149.56;;;-1.02;69.44
11643;BME280;5877;50.930;6.918;2023-02-26T03:09:30;100994.56;;;-2.12;70.59
11643;BME280;5877;50.930;6.918;2023-02-26T03:14:22;101206.94;;;-1.00;71.23
11643;BME280;5877;50.930;6.918;2023-02-26T03:19:37;101151.69;;;-1.39;70.77
11643;BME280;5877;50.930;6.918;2023-02-26T03:30:09;101193.94;;;-1.41;72.35
11643;BME280;5877;50.930;6.918;2023-02-26T03:35:13;101232.16;;;-1.25;72.61
11643;BME280;5877;50.930;6.918;2023-02-26T03:40:15;101243.28;;;-1.25;72.22
11643;BME280;5877;50.930;6.918;2023-02-26T03:45:25;101173.84;;;-1.70;71.54
11643;BME280;5877;50.930;6.918;2023-02-26T03:50:33;101226.69;;;-1.43;71.70
11643;BME280;5877;50.930;6.918;2023-02-26T03:55:51;101264.25;;;-1.29;71.46
11643;BME280;5877;50.930;6.918;2023-02-26T04:01:32;101176.06;;;-1.87;71.66
11643;BME280;5877;50.930;6.918;2023-02-26T04:06:26;101229.28;;;-1.66;71.16
11643;BME280;5877;50.930;6.918;2023-02-26T04:11:21;101277.72;;;-1.37;71.90
11643;BME280;5877;50.930;6.918;2023-02-26T04:16:16;101181.09;;;-1.97;71.24
11643;BME280;5877;50.930;6.918;2023-02-26T04:21:11;101253.63;;;-1.58;70.85
11643;BME280;5877;50.930;6.918;2023-02-26T04:26:03;101146.97;;;-2.21;70.58
11643;BME280;5877;50.930;6.918;2023-02-26T04:30:58;101215.47;;;-1.76;70.18
11643;BME280;5877;50.930;6.918;2023-02-26T04:35:50;101226.13;;;-1.80;69.96
11643;BME280;5877;50.930;6.918;2023-02-26T04:40:43;101217.47;;;-1.90;69.88
11643;BME280;5877;50.930;6.918;2023-02-26T04:45:37;101163.31;;;-2.22;69.51
11643;BME280;5877;50.930;6.918;2023-02-26T04:50:29;101283.31;;;-1.66;69.50
11643;BME280;5877;50.930;6.918;2023-02-26T04:55:22;101122.88;;;-2.65;69.97
11643;BME280;5877;50.930;6.918;2023-02-26T05:00:14;100689.75;;;-5.74;69.06
11643;BME280;5877;50.930;6.918;2023-02-26T05:05:06;101224.69;;;-2.18;69.69
11643;BME280;5877;50.930;6.918;2023-02-26T05:09:58;101208.88;;;-2.36;69.28
11643;BME280;5877;50.930;6.918;2023-02-26T05:14:50;101261.03;;;-2.11;69.95
11643;BME280;5877;50.930;6.918;2023-02-26T05:19:42;101272.06;;;-1.98;69.84
11643;BME280;5877;50.930;6.918;2023-02-26T05:24:34;101116.44;;;-3.06;69.58
11643;BME280;5877;50.930;6.918;2023-02-26T05:29:25;101326.22;;;-1.77;70.10
11643;BME280;5877;50.930;6.918;2023-02-26T05:34:19;101360.28;;;-1.63;70.01
11643;BME280;5877;50.930;6.918;2023-02-26T05:39:11;101236.84;;;-2.55;69.85
11643;BME280;5877;50.930;6.918;2023-02-26T05:44:03;101377.97;;;-1.58;69.31
11643;BME280;5877;50.930;6.918;2023-02-26T05:48:55;101240.97;;;-2.41;69.55
11643;BME280;5877;50.930;6.918;2023-02-26T05:53:46;101382.38;;;-1.71;70.39
11643;BME280;5877;50.930;6.918;2023-02-26T05:58:38;101306.34;;;-2.21;69.77
11643;BME280;5877;50.930;6.918;2023-02-26T06:03:30;101339.00;;;-2.11;70.52
11643;BME280;5877;50.930;6.918;2023-02-26T06:08:22;101369.50;;;-1.82;70.31
11643;BME280;5877;50.930;6.918;2023-02-26T06:13:13;101359.03;;;-2.03;69.60
11643;BME280;5877;50.930;6.918;2023-02-26T06:18:05;101398.13;;;-1.87;70.17
11643;BME280;5877;50.930;6.918;2023-02-26T06:22:57;101249.31;;;-2.97;70.62
11643;BME280;5877;50.930;6.918;2023-02-26T06:27:49;101344.16;;;-2.35;70.97
11643;BME280;5877;50.930;6.918;2023-02-26T06:32:41;101178.81;;;-3.40;71.00
11643;BME280;5877;50.930;6.918;2023-02-26T06:37:33;101105.28;;;-3.89;70.79
11643;BME280;5877;50.930;6.918;2023-02-26T06:42:25;101315.91;;;-2.58;70.87
11643;BME280;5877;50.930;6.918;2023-02-26T06:47:17;101460.91;;;-1.66;70.92
11643;BME280;5877;50.930;6.918;2023-02-26T06:52:09;101190.06;;;-3.30;70.28
11643;BME280;5877;50.930;6.918;2023-02-26T06:57:01;101148.59;;;-3.61;70.19
11643;BME280;5877;50.930;6.918;2023-02-26T07:01:53;101501.38;;;-1.33;69.14
11643;BME280;5877;50.930;6.918;2023-02-26T07:06:45;101461.63;;;-1.52;68.96
11643;BME280;5877;50.930;6.918;2023-02-26T07:11:37;101519.09;;;-1.17;68.88
11643;BME280;5877;50.930;6.918;2023-02-26T07:16:29;101462.72;;;-1.44;67.95
11643;BME280;5877;50.930;6.918;2023-02-26T07:21:21;101430.16;;;-1.56;67.87
11643;BME280;5877;50.930;6.918;2023-02-26T07:26:13;101402.09;;;-1.48;67.13
11643;BME280;5877;50.930;6.918;2023-02-26T07:31:05;101443.75;;;1.26;59.68
11643;BME280;5877;50.930;6.918;2023-02-26T07:35:57;101364.72;;;2.67;53.13
11643;BME280;5877;50.930;6.918;2023-02-26T07:40:49;101458.22;;;4.02;50.03
11643;BME280;5877;50.930;6.918;2023-02-26T07:45:41;101507.59;;;5.33;46.71
11643;BME280;5877;50.930;6.918;2023-02-26T07:50:32;101494.22;;;6.12;45.32
11643;BME280;5877;50.930;6.918;2023-02-26T07:55:24;101429.72;;;6.23;43.64
11643;BME280;5877;50.930;6.918;2023-02-26T08:00:16;101443.72;;;6.13;43.16
11643;BME280;5877;50.930;6.918;2023-02-26T08:05:09;101546.03;;;7.29;42.54
11643;BME280;5877;50.930;6.918;2023-02-26T08:10:01;101547.66;;;7.30;41.51
11643;BME280;5877;50.930;6.918;2023-02-26T08:14:53;101597.25;;;6.57;43.95
11643;BME280;5877;50.930;6.918;2023-02-26T08:19:44;101520.97;;;6.39;43.06
11643;BME280;5877;50.930;6.918;2023-02-26T08:24:36;101599.50;;;7.97;40.33
11643;BME280;5877;50.930;6.918;2023-02-26T08:29:29;101598.19;;;7.93;41.02
11643;BME280;5877;50.930;6.918;2023-02-26T08:34:21;101425.38;;;8.10;38.87
11643;BME280;5877;50.930;6.918;2023-02-26T08:39:13;101600.59;;;9.25;38.04
11643;BME280;5877;50.930;6.918;2023-02-26T08:44:04;101598.03;;;8.33;39.67
11643;BME280;5877;50.930;6.918;2023-02-26T08:48:56;101561.81;;;7.83;40.14
11643;BME280;5877;50.930;6.918;2023-02-26T08:53:48;101621.19;;;8.05;39.47
11643;BME280;5877;50.930;6.918;2023-02-26T08:58:42;101561.94;;;7.59;40.39
11643;BME280;5877;50.930;6.918;2023-02-26T09:03:34;101637.66;;;7.75;40.70
11643;BME280;5877;50.930;6.918;2023-02-26T09:08:25;101604.56;;;7.51;40.25
11643;BME280;5877;50.930;6.918;2023-02-26T09:13:18;101531.38;;;7.04;40.60
11643;BME280;5877;50.930;6.918;2023-02-26T09:18:10;101422.22;;;6.28;39.91
11643;BME280;5877;50.930;6.918;2023-02-26T09:23:05;101477.69;;;5.37;41.35
11643;BME280;5877;50.930;6.918;2023-02-26T09:27:57;101593.34;;;6.61;41.47
11643;BME280;5877;50.930;6.918;2023-02-26T09:32:49;101664.72;;;6.44;41.94
11643;BME280;5877;50.930;6.918;2023-02-26T09:37:41;101682.59;;;5.71;42.12
11643;BME280;5877;50.930;6.918;2023-02-26T09:47:50;101617.44;;;4.40;43.79
11643;BME280;5877;50.930;6.918;2023-02-26T09:52:53;101651.03;;;4.86;44.02
11643;BME280;5877;50.930;6.918;2023-02-26T09:57:47;101660.56;;;5.13;43.14
11643;BME280;5877;50.930;6.918;2023-02-26T10:02:56;101594.50;;;4.71;42.19
11643;BME280;5877;50.930;6.918;2023-02-26T10:08:01;101699.94;;;5.62;42.83
11643;BME280;5877;50.930;6.918;2023-02-26T10:12:55;101709.03;;;5.84;42.27
11643;BME280;5877;50.930;6.918;2023-02-26T10:17:59;101722.53;;;5.79;41.61
11643;BME280;5877;50.930;6.918;2023-02-26T10:23:15;101603.56;;;4.67;42.43
11643;BME280;5877;50.930;6.918;2023-02-26T10:38:49;101731.84;;;4.57;42.35
11643;BME280;5877;50.930;6.918;2023-02-26T10:43:48;101458.06;;;2.57;41.51
11643;BME280;5877;50.930;6.918;2023-02-26T10:53:33;101513.38;;;2.85;41.62
11643;BME280;5877;50.930;6.918;2023-02-26T10:58:25;101748.22;;;4.40;41.81
11643;BME280;5877;50.930;6.918;2023-02-26T11:08:31;101752.25;;;4.15;41.64
11643;BME280;5877;50.930;6.918;2023-02-26T11:13:25;101722.94;;;3.86;42.65
11643;BME280;5877;50.930;6.918;2023-02-26T11:18:22;101758.78;;;3.73;43.32
11643;BME280;5877;50.930;6.918;2023-02-26T11:23:19;101765.75;;;3.53;44.29
11643;BME280;5877;50.930;6.918;2023-02-26T11:28:29;101602.91;;;2.60;43.92
11643;BME280;5877;50.930;6.918;2023-02-26T11:33:35;101584.09;;;2.48;43.60
11643;BME280;5877;50.930;6.918;2023-02-26T11:38:28;101624.19;;;2.92;42.62
11643;BME280;5877;50.930;6.918;2023-02-26T11:43:24;101667.81;;;3.55;41.92
11643;BME280;5877;50.930;6.918;2023-02-26T11:48:24;101752.63;;;4.30;42.00
11643;BME280;5877;50.930;6.918;2023-02-26T11:59:07;101762.53;;;4.07;39.60
11643;BME280;5877;50.930;6.918;2023-02-26T12:04:02;101605.91;;;2.84;40.88
11643;BME280;5877;50.930;6.918;2023-02-26T12:08:54;101516.41;;;2.13;41.72
11643;BME280;5877;50.930;6.918;2023-02-26T12:18:55;101679.88;;;3.08;40.73
11643;BME280;5877;50.930;6.918;2023-02-26T12:24:06;101742.69;;;4.16;40.35
11643;BME280;5877;50.930;6.918;2023-02-26T12:29:13;101613.16;;;4.21;39.19
11643;BME280;5877;50.930;6.918;2023-02-26T12:39:36;101663.88;;;4.52;37.53
11643;BME280;5877;50.930;6.918;2023-02-26T12:49:55;101516.03;;;3.86;37.07
11643;BME280;5877;50.930;6.918;2023-02-26T13:11:41;101672.28;;;4.09;39.22
11643;BME280;5877;50.930;6.918;2023-02-26T13:21:47;101649.19;;;4.34;37.54
11643;BME280;5877;50.930;6.918;2023-02-26T13:26:42;101743.59;;;5.07;36.87
11643;BME280;5877;50.930;6.918;2023-02-26T13:31:41;101720.22;;;4.79;35.70
11643;BME280;5877;50.930;6.918;2023-02-26T13:36:35;101736.59;;;4.62;36.64
11643;BME280;5877;50.930;6.918;2023-02-26T13:41:34;101665.66;;;4.24;37.31
11643;BME280;5877;50.930;6.918;2023-02-26T13:51:36;101744.97;;;5.54;37.57
11643;BME280;5877;50.930;6.918;2023-02-26T14:01:32;101752.53;;;4.77;37.43
11643;BME280;5877;50.930;6.918;2023-02-26T14:06:44;101578.19;;;3.61;37.31
11643;BME280;5877;50.930;6.918;2023-02-26T14:11:41;101740.28;;;4.69;37.74
11643;BME280;5877;50.930;6.918;2023-02-26T14:16:34;101752.84;;;4.74;37.48
11643;BME280;5877;50.930;6.918;2023-02-26T14:21:34;101597.97;;;3.62;37.27
11643;BME280;5877;50.930;6.918;2023-02-26T14:26:31;101682.13;;;4.15;37.15
11643;BME280;5877;50.930;6.918;2023-02-26T14:31:24;101576.81;;;3.56;37.30
11643;BME280;5877;50.930;6.918;2023-02-26T14:36:34;101653.16;;;4.10;37.55
11643;BME280;5877;50.930;6.918;2023-02-26T14:41:32;101751.91;;;4.65;37.45
11643;BME280;5877;50.930;6.918;2023-02-26T14:46:27;101581.72;;;3.59;38.86
11643;BME280;5877;50.930;6.918;2023-02-26T14:51:42;101747.19;;;4.23;39.52
11643;BME280;5877;50.930;6.918;2023-02-26T15:06:51;101750.81;;;3.94;37.52
11643;BME280;5877;50.930;6.918;2023-02-26T15:27:29;101537.13;;;2.61;39.56
11643;BME280;5877;50.930;6.918;2023-02-26T15:32:23;101762.84;;;3.85;39.55
11643;BME280;5877;50.930;6.918;2023-02-26T15:37:21;101769.59;;;3.58;39.88
11643;BME280;5877;50.930;6.918;2023-02-26T15:42:14;101680.66;;;2.79;39.44
11643;BME280;5877;50.930;6.918;2023-02-26T15:47:06;101686.38;;;2.64;40.04
11643;BME280;5877;50.930;6.918;2023-02-26T15:51:59;101702.63;;;2.85;40.09
11643;BME280;5877;50.930;6.918;2023-02-26T15:56:52;101799.91;;;3.39;40.25
11643;BME280;5877;50.930;6.918;2023-02-26T16:01:44;101604.72;;;2.10;41.16
11643;BME280;5877;50.930;6.918;2023-02-26T16:06:39;101816.97;;;3.32;40.70
11643;BME280;5877;50.930;6.918;2023-02-26T16:11:34;101751.63;;;2.88;40.58
11643;BME280;5877;50.930;6.918;2023-02-26T16:16:40;101713.94;;;2.55;40.81
11643;BME280;5877;50.930;6.918;2023-02-26T16:21:35;101647.75;;;2.01;41.05
11643;BME280;5877;50.930;6.918;2023-02-26T16:26:37;101602.09;;;1.60;41.73
11643;BME280;5877;50.930;6.918;2023-02-26T16:31:31;101831.72;;;2.81;41.90
11643;BME280;5877;50.930;6.918;2023-02-26T16:36:31;101624.94;;;1.34;41.86
11643;BME280;5877;50.930;6.918;2023-02-26T16:41:25;101848.69;;;2.65;42.21
11643;BME280;5877;50.930;6.918;2023-02-26T16:46:22;101647.97;;;1.37;42.34
11643;BME280;5877;50.930;6.918;2023-02-26T16:51:21;101628.97;;;1.06;42.99
11643;BME280;5877;50.930;6.918;2023-02-26T16:56:19;101792.75;;;2.01;43.05
11643;BME280;5877;50.930;6.918;2023-02-26T17:01:16;101639.34;;;0.95;43.26
11643;BME280;5877;50.930;6.918;2023-02-26T17:06:10;101728.06;;;1.27;43.95
11643;BME280;5877;50.930;6.918;2023-02-26T17:11:06;101501.69;;;-0.35;45.93
11643;BME280;5877;50.930;6.918;2023-02-26T17:16:04;101565.00;;;-0.20;45.36
11643;BME280;5877;50.930;6.918;2023-02-26T17:20:59;101729.56;;;0.98;46.16
11643;BME280;5877;50.930;6.918;2023-02-26T17:25:56;101598.81;;;0.20;45.73
11643;BME280;5877;50.930;6.918;2023-02-26T17:30:53;101463.50;;;-0.86;45.76
11643;BME280;5877;50.930;6.918;2023-02-26T17:35:45;101601.94;;;-0.08;46.09
11643;BME280;5877;50.930;6.918;2023-02-26T17:40:38;101538.63;;;-0.68;46.72
11643;BME280;5877;50.930;6.918;2023-02-26T17:45:32;101671.09;;;0.09;48.06
11643;BME280;5877;50.930;6.918;2023-02-26T17:50:42;101631.56;;;-0.58;48.55
11643;BME280;5877;50.930;6.918;2023-02-26T17:55:36;101876.78;;;0.66;50.04
11643;BME280;5877;50.930;6.918;2023-02-26T18:00:29;101593.06;;;-1.19;50.18
11643;BME280;5877;50.930;6.918;2023-02-26T18:05:24;101351.56;;;-2.78;50.14
11643;BME280;5877;50.930;6.918;2023-02-26T18:10:21;101930.84;;;0.91;50.46
11643;BME280;5877;50.930;6.918;2023-02-26T18:15:15;101786.34;;;0.21;49.62
11643;BME280;5877;50.930;6.918;2023-02-26T18:20:15;101772.72;;;0.30;48.75
11643;BME280;5877;50.930;6.918;2023-02-26T18:25:08;101701.84;;;-0.21;48.87
11643;BME280;5877;50.930;6.918;2023-02-26T18:30:00;101950.94;;;1.10;49.47
11643;BME280;5877;50.930;6.918;2023-02-26T18:34:53;101516.41;;;-1.50;49.15
11643;BME280;5877;50.930;6.918;2023-02-26T18:39:45;101734.06;;;-0.27;50.54
11643;BME280;5877;50.930;6.918;2023-02-26T18:44:37;101730.88;;;-0.42;50.40
11643;BME280;5877;50.930;6.918;2023-02-26T18:49:29;101573.69;;;-1.36;50.15
11643;BME280;5877;50.930;6.918;2023-02-26T18:54:21;101962.34;;;1.08;49.97
11643;BME280;5877;50.930;6.918;2023-02-26T18:59:13;101952.56;;;1.00;49.96
11643;BME280;5877;50.930;6.918;2023-02-26T19:04:05;101470.69;;;-2.18;49.54
11643;BME280;5877;50.930;6.918;2023-02-26T19:08:58;101872.50;;;0.43;49.53
11643;BME280;5877;50.930;6.918;2023-02-26T19:13:53;101547.78;;;-1.69;50.68
11643;BME280;5877;50.930;6.918;2023-02-26T19:18:45;101976.16;;;0.84;51.18
11643;BME280;5877;50.930;6.918;2023-02-26T19:23:37;101599.50;;;-1.48;50.26
11643;BME280;5877;50.930;6.918;2023-02-26T19:28:30;101738.41;;;-0.62;51.16
11643;BME280;5877;50.930;6.918;2023-02-26T19:33:23;101981.91;;;0.77;51.53
11643;BME280;5877;50.930;6.918;2023-02-26T19:38:15;101459.22;;;-2.62;51.77
11643;BME280;5877;50.930;6.918;2023-02-26T19:43:08;101924.59;;;0.25;52.29
11643;BME280;5877;50.930;6.918;2023-02-26T19:48:00;101793.31;;;-0.73;51.96
11643;BME280;5877;50.930;6.918;2023-02-26T19:52:53;102002.00;;;0.84;51.90
11643;BME280;5877;50.930;6.918;2023-02-26T19:57:45;101877.16;;;-0.20;52.19
11643;BME280;5877;50.930;6.918;2023-02-26T20:02:40;102015.56;;;0.64;52.30
11643;BME280;5877;50.930;6.918;2023-02-26T20:07:33;101697.72;;;-1.42;52.62
11643;BME280;5877;50.930;6.918;2023-02-26T20:12:26;102022.16;;;0.68;52.65
11643;BME280;5877;50.930;6.918;2023-02-26T20:17:18;101763.59;;;-0.90;52.10
11643;BME280;5877;50.930;6.918;2023-02-26T20:22:10;102037.00;;;0.77;51.85
11643;BME280;5877;50.930;6.918;2023-02-26T20:27:03;101892.38;;;0.07;51.79
11643;BME280;5877;50.930;6.918;2023-02-26T20:31:57;101854.00;;;0.03;51.31
11643;BME280;5877;50.930;6.918;2023-02-26T20:36:50;101852.25;;;0.14;50.83
11643;BME280;5877;50.930;6.918;2023-02-26T20:41:46;101832.88;;;-0.03;51.28
11643;BME280;5877;50.930;6.918;2023-02-26T20:46:39;102051.66;;;1.12;51.09
11643;BME280;5877;50.930;6.918;2023-02-26T20:51:31;101990.28;;;0.45;52.03
11643;BME280;5877;50.930;6.918;2023-02-26T20:56:23;101828.53;;;-0.61;52.25
11643;BME280;5877;50.930;6.918;2023-02-26T21:02:30;102065.53;;;0.76;52.44
11643;BME280;5877;50.930;6.918;2023-02-26T21:08:36;101910.75;;;-0.32;53.59
11643;BME280;5877;50.930;6.918;2023-02-26T21:14:43;101779.47;;;-1.33;53.91
11643;BME280;5877;50.930;6.918;2023-02-26T21:27:26;101979.59;;;-0.09;54.53
11643;BME280;5877;50.930;6.918;2023-02-26T21:32:19;101758.44;;;-1.26;53.82
11643;BME280;5877;50.930;6.918;2023-02-26T21:37:11;102023.00;;;0.69;53.43
11643;BME280;5877;50.930;6.918;2023-02-26T21:42:05;102072.56;;;1.09;53.66
11643;BME280;5877;50.930;6.918;2023-02-26T21:46:58;101983.16;;;0.60;52.98
11643;BME280;5877;50.930;6.918;2023-02-26T21:51:51;101846.75;;;-0.27;53.71
11643;BME280;5877;50.930;6.918;2023-02-26T21:56:43;101997.16;;;0.33;54.21
11643;BME280;5877;50.930;6.918;2023-02-26T22:01:35;101693.25;;;-1.76;54.81
11643;BME280;5877;50.930;6.918;2023-02-26T22:06:27;102071.69;;;0.62;55.06
11643;BME280;5877;50.930;6.918;2023-02-26T22:11:19;101717.13;;;-1.61;55.38
11643;BME280;5877;50.930;6.918;2023-02-26T22:16:11;101947.06;;;-0.36;56.31
11643;BME280;5877;50.930;6.918;2023-02-26T22:21:05;101614.41;;;-2.52;56.11
11643;BME280;5877;50.930;6.918;2023-02-26T22:25:57;102071.22;;;0.33;56.60
11643;BME280;5877;50.930;6.918;2023-02-26T22:30:51;102053.56;;;0.27;56.89
11643;BME280;5877;50.930;6.918;2023-02-26T22:35:43;102072.06;;;0.21;57.48
11643;BME280;5877;50.930;6.918;2023-02-26T22:40:36;101988.78;;;-0.42;57.88
11643;BME280;5877;50.930;6.918;2023-02-26T22:45:28;102065.59;;;0.15;58.47
11643;BME280;5877;50.930;6.918;2023-02-26T22:50:21;101877.00;;;-1.15;58.07
11643;BME280;5877;50.930;6.918;2023-02-26T22:55:13;102046.03;;;0.00;57.89
11643;BME280;5877;50.930;6.918;2023-02-26T23:00:09;101902.34;;;-0.96;58.48
11643;BME280;5877;50.930;6.918;2023-02-26T23:05:02;102016.28;;;-0.29;59.37
11643;BME280;5877;50.930;6.918;2023-02-26T23:09:54;101757.47;;;-2.00;59.23
11643;BME280;5877;50.930;6.918;2023-02-26T23:14:46;102007.56;;;-0.52;60.54
11643;BME280;5877;50.930;6.918;2023-02-26T23:19:39;102109.56;;;-0.10;60.39
11643;BME280;5877;50.930;6.918;2023-02-26T23:24:31;102047.06;;;-0.52;61.26
11643;BME280;5877;50.930;6.918;2023-02-26T23:29:24;101904.41;;;-1.27;61.26
11643;BME280;5877;50.930;6.918;2023-02-26T23:34:16;101960.06;;;-0.86;60.90
11643;BME280;5877;50.930;6.918;2023-02-26T23:39:08;102003.03;;;-0.61;61.23
11643;BME280;5877;50.930;6.918;2023-02-26T23:44:00;101829.00;;;-1.80;60.91
11643;BME280;5877;50.930;6.918;2023-02-26T23:48:52;102099.03;;;-0.20;62.02
11643;BME280;5877;50.930;6.918;2023-02-26T23:53:46;102028.00;;;-0.62;61.36
11643;BME280;5877;50.930;6.918;2023-02-26T23:58:38;101873.59;;;-1.67;62.21
